GLD1440 SLVR-SPJC
Flight info
| Callsign | GLD1440 |
|---|---|
| Flight time | 2h 19m |
| Altitude | 42000 |
| Route | DCT DIBAS UM415 ASOXI DCT |
| Aircraft | C700/M-SDFGIRY/S |
Departure
| Time | 2026-05-03 20:57 |
|---|---|
| Airport | Viru Viru International Airport (SLVR) |
Arrival
| Time | 2026-05-03 23:16 |
|---|---|
| Airport | Jorge Chávez International Airport (SPJC) |
| Time | Latitude | Longitude | Altitude | Speed | Heading |
|---|---|---|---|---|---|
| 2026-05-03 20:48 | -17.64071 | -63.14327 | 1224 ft | 0 kts | 326° |
| 2026-05-03 20:54 | -17.64066 | -63.14322 | 1224 ft | 1 kts | 52° |
| 2026-05-03 20:54 | -17.64063 | -63.14246 | 1224 ft | 10 kts | 53° |
| 2026-05-03 20:54 | -17.64011 | -63.14160 | 1224 ft | 16 kts | 57° |
| 2026-05-03 20:55 | -17.63945 | -63.14053 | 1224 ft | 19 kts | 57° |
| 2026-05-03 20:55 | -17.63848 | -63.13966 | 1222 ft | 17 kts | 357° |
| 2026-05-03 20:55 | -17.63736 | -63.14031 | 1222 ft | 22 kts | 327° |
| 2026-05-03 20:55 | -17.63574 | -63.14140 | 1224 ft | 31 kts | 327° |
| 2026-05-03 20:56 | -17.63379 | -63.14271 | 1224 ft | 35 kts | 327° |
| 2026-05-03 20:56 | -17.63228 | -63.14401 | 1222 ft | 26 kts | 290° |
| 2026-05-03 20:56 | -17.63181 | -63.14407 | 1222 ft | 13 kts | 130° |
| 2026-05-03 20:56 | -17.63396 | -63.14262 | 1224 ft | 82 kts | 147° |
| 2026-05-03 20:57 | -17.64139 | -63.13767 | 1313 ft | 163 kts | 148° |
| 2026-05-03 20:57 | -17.65228 | -63.13042 | 1996 ft | 198 kts | 147° |
| 2026-05-03 20:57 | -17.66436 | -63.12261 | 2853 ft | 210 kts | 145° |
| 2026-05-03 20:57 | -17.67344 | -63.11111 | 3990 ft | 214 kts | 104° |
| 2026-05-03 20:58 | -17.67199 | -63.09538 | 5095 ft | 231 kts | 61° |
| 2026-05-03 20:58 | -17.66025 | -63.08369 | 6208 ft | 249 kts | 23° |
| 2026-05-03 20:58 | -17.64273 | -63.08172 | 7346 ft | 262 kts | 346° |
| 2026-05-03 20:58 | -17.62728 | -63.09157 | 8809 ft | 265 kts | 311° |
| 2026-05-03 20:59 | -17.61991 | -63.10922 | 10206 ft | 272 kts | 277° |
| 2026-05-03 20:59 | -17.62112 | -63.12937 | 11361 ft | 285 kts | 264° |
| 2026-05-03 20:59 | -17.61853 | -63.15063 | 12140 ft | 310 kts | 290° |
| 2026-05-03 20:59 | -17.60831 | -63.17134 | 13092 ft | 328 kts | 300° |
| 2026-05-03 21:00 | -17.59669 | -63.19236 | 14179 ft | 339 kts | 298° |
| 2026-05-03 21:00 | -17.59280 | -63.19932 | 14521 ft | 342 kts | 300° |
| 2026-05-03 21:00 | -17.56980 | -63.23422 | 16357 ft | 353 kts | 306° |
| 2026-05-03 21:00 | -17.55537 | -63.25527 | 17451 ft | 360 kts | 304° |
| 2026-05-03 21:01 | -17.54146 | -63.27699 | 18493 ft | 367 kts | 302° |
| 2026-05-03 21:01 | -17.52698 | -63.29961 | 19482 ft | 371 kts | 303° |
| 2026-05-03 21:01 | -17.51232 | -63.32181 | 20442 ft | 377 kts | 304° |
| 2026-05-03 21:01 | -17.49727 | -63.34453 | 21403 ft | 382 kts | 303° |
| 2026-05-03 21:02 | -17.48216 | -63.36765 | 22363 ft | 387 kts | 303° |
| 2026-05-03 21:02 | -17.46688 | -63.39107 | 23307 ft | 392 kts | 303° |
| 2026-05-03 21:02 | -17.45133 | -63.41475 | 24138 ft | 397 kts | 303° |
| 2026-05-03 21:02 | -17.43560 | -63.43865 | 25035 ft | 397 kts | 303° |
| 2026-05-03 21:03 | -17.41991 | -63.46258 | 25886 ft | 400 kts | 303° |
| 2026-05-03 21:03 | -17.40411 | -63.48668 | 26697 ft | 403 kts | 303° |
| 2026-05-03 21:03 | -17.38817 | -63.51094 | 27502 ft | 406 kts | 303° |
| 2026-05-03 21:03 | -17.37209 | -63.53539 | 28316 ft | 409 kts | 303° |
| 2026-05-03 21:04 | -17.35659 | -63.56043 | 29089 ft | 411 kts | 298° |
| 2026-05-03 21:04 | -17.34506 | -63.58794 | 29847 ft | 414 kts | 289° |
| 2026-05-03 21:04 | -17.33788 | -63.61716 | 30528 ft | 417 kts | 279° |
| 2026-05-03 21:04 | -17.33392 | -63.64690 | 31175 ft | 419 kts | 277° |
| 2026-05-03 21:05 | -17.32988 | -63.67721 | 31829 ft | 421 kts | 277° |
| 2026-05-03 21:05 | -17.32576 | -63.70761 | 32442 ft | 424 kts | 277° |
| 2026-05-03 21:05 | -17.32166 | -63.73835 | 33029 ft | 427 kts | 277° |
| 2026-05-03 21:05 | -17.31756 | -63.76927 | 33586 ft | 430 kts | 277° |
| 2026-05-03 21:06 | -17.31341 | -63.80030 | 34126 ft | 432 kts | 277° |
| 2026-05-03 21:06 | -17.30921 | -63.83155 | 34590 ft | 435 kts | 277° |
| 2026-05-03 21:06 | -17.30498 | -63.86301 | 35067 ft | 437 kts | 277° |
| 2026-05-03 21:06 | -17.30073 | -63.89467 | 35567 ft | 440 kts | 277° |
| 2026-05-03 21:07 | -17.29647 | -63.92637 | 36223 ft | 438 kts | 277° |
| 2026-05-03 21:07 | -17.29223 | -63.95780 | 36943 ft | 434 kts | 277° |
| 2026-05-03 21:07 | -17.28806 | -63.98868 | 37573 ft | 432 kts | 277° |
| 2026-05-03 21:07 | -17.28388 | -64.01970 | 38162 ft | 430 kts | 277° |
| 2026-05-03 21:08 | -17.27970 | -64.05065 | 38710 ft | 428 kts | 277° |
| 2026-05-03 21:08 | -17.27554 | -64.08140 | 39132 ft | 426 kts | 277° |
| 2026-05-03 21:08 | -17.27138 | -64.11209 | 39500 ft | 425 kts | 277° |
| 2026-05-03 21:08 | -17.26724 | -64.14264 | 39843 ft | 424 kts | 278° |
| 2026-05-03 21:09 | -17.26308 | -64.17320 | 40189 ft | 424 kts | 278° |
| 2026-05-03 21:09 | -17.25894 | -64.20370 | 40499 ft | 423 kts | 278° |
| 2026-05-03 21:09 | -17.25481 | -64.23408 | 40804 ft | 422 kts | 278° |
| 2026-05-03 21:09 | -17.25065 | -64.26452 | 41088 ft | 421 kts | 278° |
| 2026-05-03 21:10 | -17.24652 | -64.29487 | 41354 ft | 420 kts | 278° |
| 2026-05-03 21:10 | -17.24239 | -64.32508 | 41604 ft | 420 kts | 278° |
| 2026-05-03 21:10 | -17.23832 | -64.35490 | 41847 ft | 419 kts | 278° |
| 2026-05-03 21:10 | -17.23413 | -64.38548 | 42071 ft | 419 kts | 278° |
| 2026-05-03 21:11 | -17.22578 | -64.44639 | 42081 ft | 427 kts | 278° |
| 2026-05-03 21:11 | -17.21276 | -64.50670 | 42083 ft | 429 kts | 287° |
| 2026-05-03 21:12 | -17.19463 | -64.56622 | 42094 ft | 429 kts | 287° |
| 2026-05-03 21:12 | -17.17644 | -64.62590 | 42093 ft | 430 kts | 287° |
| 2026-05-03 21:13 | -17.16132 | -64.67540 | 42100 ft | 430 kts | 287° |
| 2026-05-03 21:13 | -17.14001 | -64.74518 | 42106 ft | 431 kts | 287° |
| 2026-05-03 21:14 | -17.12485 | -64.79473 | 42109 ft | 430 kts | 287° |
| 2026-05-03 21:14 | -17.10660 | -64.85433 | 42111 ft | 431 kts | 287° |
| 2026-05-03 21:15 | -17.08833 | -64.91393 | 42115 ft | 431 kts | 287° |
| 2026-05-03 21:15 | -17.07004 | -64.97353 | 42116 ft | 431 kts | 287° |
| 2026-05-03 21:16 | -17.05172 | -65.03315 | 42120 ft | 431 kts | 287° |
| 2026-05-03 21:16 | -17.03337 | -65.09281 | 42122 ft | 431 kts | 287° |
| 2026-05-03 21:17 | -17.01495 | -65.15261 | 42127 ft | 431 kts | 287° |
| 2026-05-03 21:17 | -16.99659 | -65.21217 | 42128 ft | 432 kts | 287° |
| 2026-05-03 21:18 | -16.97814 | -65.27194 | 42135 ft | 432 kts | 287° |
| 2026-05-03 21:18 | -16.95976 | -65.33139 | 42140 ft | 433 kts | 287° |
| 2026-05-03 21:19 | -16.94122 | -65.39132 | 42150 ft | 433 kts | 287° |
| 2026-05-03 21:19 | -16.92270 | -65.45113 | 42153 ft | 432 kts | 287° |
| 2026-05-03 21:20 | -16.90416 | -65.51088 | 42162 ft | 432 kts | 287° |
| 2026-05-03 21:20 | -16.88576 | -65.57020 | 42167 ft | 432 kts | 287° |
| 2026-05-03 21:21 | -16.86722 | -65.62982 | 42177 ft | 432 kts | 288° |
| 2026-05-03 21:21 | -16.84863 | -65.68960 | 42188 ft | 432 kts | 288° |
| 2026-05-03 21:22 | -16.83003 | -65.74928 | 42203 ft | 432 kts | 288° |
| 2026-05-03 21:22 | -16.81203 | -65.80927 | 42207 ft | 433 kts | 287° |
| 2026-05-03 21:23 | -16.79390 | -65.86915 | 42222 ft | 432 kts | 287° |
| 2026-05-03 21:23 | -16.77578 | -65.92901 | 42233 ft | 433 kts | 287° |
| 2026-05-03 21:24 | -16.75780 | -65.98840 | 42239 ft | 432 kts | 287° |
| 2026-05-03 21:24 | -16.73961 | -66.04832 | 42247 ft | 433 kts | 287° |
| 2026-05-03 21:25 | -16.72140 | -66.10834 | 42248 ft | 434 kts | 287° |
| 2026-05-03 21:25 | -16.70315 | -66.16836 | 42259 ft | 434 kts | 287° |
| 2026-05-03 21:26 | -16.68489 | -66.22836 | 42257 ft | 434 kts | 287° |
| 2026-05-03 21:26 | -16.66659 | -66.28835 | 42264 ft | 434 kts | 287° |
| 2026-05-03 21:27 | -16.64833 | -66.34829 | 42261 ft | 434 kts | 287° |
| 2026-05-03 21:27 | -16.63008 | -66.40837 | 42257 ft | 435 kts | 287° |
| 2026-05-03 21:28 | -16.61188 | -66.46844 | 42258 ft | 435 kts | 287° |
| 2026-05-03 21:28 | -16.59373 | -66.52811 | 42248 ft | 434 kts | 287° |
| 2026-05-03 21:29 | -16.57548 | -66.58818 | 42245 ft | 434 kts | 288° |
| 2026-05-03 21:29 | -16.55719 | -66.64819 | 42233 ft | 435 kts | 288° |
| 2026-05-03 21:30 | -16.53889 | -66.70831 | 42228 ft | 435 kts | 288° |
| 2026-05-03 21:30 | -16.52054 | -66.76836 | 42231 ft | 435 kts | 288° |
| 2026-05-03 21:31 | -16.50217 | -66.82856 | 42221 ft | 436 kts | 288° |
| 2026-05-03 21:31 | -16.48380 | -66.88858 | 42203 ft | 435 kts | 288° |
| 2026-05-03 21:32 | -16.46538 | -66.94874 | 42196 ft | 436 kts | 288° |
| 2026-05-03 21:32 | -16.44706 | -67.00854 | 42189 ft | 436 kts | 288° |
| 2026-05-03 21:33 | -16.42860 | -67.06868 | 42179 ft | 436 kts | 288° |
| 2026-05-03 21:33 | -16.41011 | -67.12889 | 42170 ft | 436 kts | 288° |
| 2026-05-03 21:34 | -16.39157 | -67.18918 | 42148 ft | 436 kts | 288° |
| 2026-05-03 21:34 | -16.37298 | -67.24948 | 42150 ft | 437 kts | 288° |
| 2026-05-03 21:35 | -16.35458 | -67.30924 | 42142 ft | 438 kts | 288° |
| 2026-05-03 21:35 | -16.33581 | -67.37007 | 42143 ft | 437 kts | 288° |
| 2026-05-03 21:36 | -16.31729 | -67.42997 | 42139 ft | 437 kts | 288° |
| 2026-05-03 21:36 | -16.29869 | -67.49016 | 42140 ft | 437 kts | 288° |
| 2026-05-03 21:37 | -16.27998 | -67.55054 | 42134 ft | 438 kts | 288° |
| 2026-05-03 21:37 | -16.26130 | -67.61083 | 42135 ft | 438 kts | 288° |
| 2026-05-03 21:38 | -16.24257 | -67.67119 | 42131 ft | 437 kts | 288° |
| 2026-05-03 21:38 | -16.22397 | -67.73140 | 42134 ft | 437 kts | 288° |
| 2026-05-03 21:39 | -16.20573 | -67.79173 | 42139 ft | 437 kts | 288° |
| 2026-05-03 21:39 | -16.18729 | -67.85195 | 42134 ft | 437 kts | 288° |
| 2026-05-03 21:40 | -16.16887 | -67.91232 | 42140 ft | 439 kts | 288° |
| 2026-05-03 21:40 | -16.15040 | -67.97272 | 42144 ft | 438 kts | 288° |
| 2026-05-03 21:41 | -16.13188 | -68.03320 | 42153 ft | 438 kts | 288° |
| 2026-05-03 21:41 | -16.11350 | -68.09320 | 42152 ft | 438 kts | 288° |
| 2026-05-03 21:42 | -16.09482 | -68.15408 | 42160 ft | 438 kts | 288° |
| 2026-05-03 21:42 | -16.07645 | -68.21388 | 42164 ft | 437 kts | 288° |
| 2026-05-03 21:43 | -16.05802 | -68.27417 | 42156 ft | 438 kts | 288° |
| 2026-05-03 21:43 | -16.03954 | -68.33457 | 42166 ft | 438 kts | 288° |
| 2026-05-03 21:44 | -16.02103 | -68.39493 | 42165 ft | 439 kts | 288° |
| 2026-05-03 21:44 | -16.00247 | -68.45549 | 42162 ft | 439 kts | 288° |
| 2026-05-03 21:45 | -15.98411 | -68.51599 | 42159 ft | 439 kts | 288° |
| 2026-05-03 21:45 | -15.96562 | -68.57662 | 42154 ft | 439 kts | 288° |
| 2026-05-03 21:46 | -15.94718 | -68.63718 | 42144 ft | 440 kts | 288° |
| 2026-05-03 21:46 | -15.92872 | -68.69767 | 42137 ft | 440 kts | 288° |
| 2026-05-03 21:47 | -15.91021 | -68.75827 | 42136 ft | 439 kts | 288° |
| 2026-05-03 21:47 | -15.89168 | -68.81885 | 42125 ft | 440 kts | 288° |
| 2026-05-03 21:48 | -15.87316 | -68.87937 | 42118 ft | 440 kts | 288° |
| 2026-05-03 21:48 | -15.85459 | -68.93996 | 42115 ft | 440 kts | 288° |
| 2026-05-03 21:49 | -15.83606 | -69.00034 | 42109 ft | 441 kts | 288° |
| 2026-05-03 21:49 | -15.81746 | -69.06092 | 42109 ft | 441 kts | 288° |
| 2026-05-03 21:50 | -15.79878 | -69.12166 | 42106 ft | 441 kts | 288° |
| 2026-05-03 21:50 | -15.78010 | -69.18236 | 42103 ft | 441 kts | 288° |
| 2026-05-03 21:51 | -15.76150 | -69.24271 | 42101 ft | 441 kts | 288° |
| 2026-05-03 21:51 | -15.74283 | -69.30325 | 42097 ft | 440 kts | 288° |
| 2026-05-03 21:52 | -15.72412 | -69.36382 | 42090 ft | 440 kts | 288° |
| 2026-05-03 21:52 | -15.70503 | -69.42422 | 42089 ft | 441 kts | 289° |
| 2026-05-03 21:53 | -15.68518 | -69.48449 | 42086 ft | 441 kts | 289° |
| 2026-05-03 21:53 | -15.66572 | -69.54503 | 42083 ft | 442 kts | 289° |
| 2026-05-03 21:54 | -15.64602 | -69.60540 | 42078 ft | 442 kts | 289° |
| 2026-05-03 21:54 | -15.62638 | -69.66597 | 42075 ft | 443 kts | 289° |
| 2026-05-03 21:55 | -15.60667 | -69.72646 | 42074 ft | 443 kts | 289° |
| 2026-05-03 21:55 | -15.58695 | -69.78703 | 42069 ft | 443 kts | 289° |
| 2026-05-03 21:56 | -15.56736 | -69.84710 | 42152 ft | 443 kts | 289° |
| 2026-05-03 21:56 | -15.54753 | -69.90785 | 42282 ft | 444 kts | 289° |
| 2026-05-03 21:57 | -15.52773 | -69.96844 | 42403 ft | 443 kts | 289° |
| 2026-05-03 21:57 | -15.50789 | -70.02911 | 42533 ft | 444 kts | 289° |
| 2026-05-03 21:58 | -15.48801 | -70.08980 | 42617 ft | 445 kts | 289° |
| 2026-05-03 21:58 | -15.46807 | -70.15045 | 42615 ft | 444 kts | 290° |
| 2026-05-03 21:59 | -15.44838 | -70.19958 | 42614 ft | 444 kts | 293° |
| 2026-05-03 21:59 | -15.42482 | -70.25876 | 42581 ft | 444 kts | 292° |
| 2026-05-03 22:00 | -15.39715 | -70.32747 | 42438 ft | 444 kts | 292° |
| 2026-05-03 22:00 | -15.37728 | -70.37705 | 42340 ft | 444 kts | 292° |
| 2026-05-03 22:01 | -15.35365 | -70.43580 | 42225 ft | 444 kts | 292° |
| 2026-05-03 22:01 | -15.32997 | -70.49466 | 42112 ft | 445 kts | 292° |
| 2026-05-03 22:02 | -15.30602 | -70.55410 | 42104 ft | 446 kts | 292° |
| 2026-05-03 22:02 | -15.28215 | -70.61336 | 42112 ft | 446 kts | 292° |
| 2026-05-03 22:03 | -15.25820 | -70.67270 | 42117 ft | 446 kts | 292° |
| 2026-05-03 22:03 | -15.23427 | -70.73196 | 42120 ft | 446 kts | 292° |
| 2026-05-03 22:04 | -15.21033 | -70.79121 | 42116 ft | 446 kts | 292° |
| 2026-05-03 22:04 | -15.18638 | -70.85042 | 42123 ft | 446 kts | 292° |
| 2026-05-03 22:05 | -15.16235 | -70.90976 | 42114 ft | 447 kts | 292° |
| 2026-05-03 22:05 | -15.13831 | -70.96910 | 42113 ft | 446 kts | 292° |
| 2026-05-03 22:06 | -15.11429 | -71.02832 | 42106 ft | 446 kts | 292° |
| 2026-05-03 22:06 | -15.09042 | -71.08710 | 42099 ft | 446 kts | 293° |
| 2026-05-03 22:07 | -15.06634 | -71.14636 | 42093 ft | 447 kts | 293° |
| 2026-05-03 22:07 | -15.04224 | -71.20562 | 42090 ft | 446 kts | 293° |
| 2026-05-03 22:08 | -15.01810 | -71.26491 | 42085 ft | 447 kts | 293° |
| 2026-05-03 22:08 | -14.99396 | -71.32415 | 42087 ft | 446 kts | 293° |
| 2026-05-03 22:09 | -14.96983 | -71.38333 | 42083 ft | 447 kts | 293° |
| 2026-05-03 22:10 | -14.93366 | -71.47196 | 42086 ft | 446 kts | 293° |
| 2026-05-03 22:10 | -14.90960 | -71.53080 | 42090 ft | 446 kts | 293° |
| 2026-05-03 22:11 | -14.88544 | -71.58987 | 42097 ft | 446 kts | 293° |
| 2026-05-03 22:11 | -14.86125 | -71.64895 | 42099 ft | 446 kts | 293° |
| 2026-05-03 22:12 | -14.83709 | -71.70797 | 42102 ft | 446 kts | 293° |
| 2026-05-03 22:12 | -14.81288 | -71.76697 | 42110 ft | 446 kts | 293° |
| 2026-05-03 22:13 | -14.78870 | -71.82589 | 42115 ft | 445 kts | 293° |
| 2026-05-03 22:13 | -14.76448 | -71.88482 | 42114 ft | 445 kts | 293° |
| 2026-05-03 22:14 | -14.74024 | -71.94376 | 42114 ft | 445 kts | 293° |
| 2026-05-03 22:14 | -14.71600 | -72.00267 | 42117 ft | 445 kts | 293° |
| 2026-05-03 22:15 | -14.69186 | -72.06127 | 42119 ft | 445 kts | 293° |
| 2026-05-03 22:15 | -14.66758 | -72.12019 | 42120 ft | 445 kts | 293° |
| 2026-05-03 22:16 | -14.64329 | -72.17905 | 42124 ft | 446 kts | 294° |
| 2026-05-03 22:16 | -14.61896 | -72.23799 | 42130 ft | 446 kts | 294° |
| 2026-05-03 22:17 | -14.59458 | -72.29698 | 42131 ft | 446 kts | 294° |
| 2026-05-03 22:17 | -14.57020 | -72.35592 | 42134 ft | 446 kts | 294° |
| 2026-05-03 22:18 | -14.54596 | -72.41446 | 42136 ft | 446 kts | 294° |
| 2026-05-03 22:18 | -14.52157 | -72.47336 | 42139 ft | 446 kts | 294° |
| 2026-05-03 22:19 | -14.49711 | -72.53233 | 42141 ft | 446 kts | 294° |
| 2026-05-03 22:19 | -14.47268 | -72.59122 | 42140 ft | 446 kts | 294° |
| 2026-05-03 22:20 | -14.44826 | -72.64999 | 42139 ft | 446 kts | 294° |
| 2026-05-03 22:20 | -14.42382 | -72.70884 | 42134 ft | 446 kts | 294° |
| 2026-05-03 22:21 | -14.39933 | -72.76768 | 42130 ft | 446 kts | 294° |
| 2026-05-03 22:21 | -14.37487 | -72.82643 | 42124 ft | 446 kts | 294° |
| 2026-05-03 22:22 | -14.35039 | -72.88517 | 42116 ft | 446 kts | 294° |
| 2026-05-03 22:22 | -14.32590 | -72.94392 | 42109 ft | 445 kts | 294° |
| 2026-05-03 22:23 | -14.30139 | -73.00263 | 42096 ft | 446 kts | 294° |
| 2026-05-03 22:23 | -14.27696 | -73.06113 | 42098 ft | 446 kts | 294° |
| 2026-05-03 22:24 | -14.25241 | -73.11987 | 42096 ft | 446 kts | 294° |
| 2026-05-03 22:24 | -14.22783 | -73.17861 | 42097 ft | 446 kts | 294° |
| 2026-05-03 22:25 | -14.20322 | -73.23744 | 42092 ft | 447 kts | 294° |
| 2026-05-03 22:25 | -14.17858 | -73.29617 | 42092 ft | 447 kts | 294° |
| 2026-05-03 22:26 | -14.15392 | -73.35502 | 42092 ft | 446 kts | 294° |
| 2026-05-03 22:26 | -14.12940 | -73.41343 | 42095 ft | 446 kts | 294° |
| 2026-05-03 22:27 | -14.10474 | -73.47214 | 42099 ft | 447 kts | 294° |
| 2026-05-03 22:27 | -14.08005 | -73.53090 | 42097 ft | 447 kts | 294° |
| 2026-05-03 22:28 | -14.05535 | -73.58960 | 42097 ft | 447 kts | 294° |
| 2026-05-03 22:28 | -14.03058 | -73.64850 | 42093 ft | 448 kts | 295° |
| 2026-05-03 22:29 | -14.00578 | -73.70733 | 42095 ft | 448 kts | 295° |
| 2026-05-03 22:29 | -13.98100 | -73.76613 | 42093 ft | 448 kts | 295° |
| 2026-05-03 22:30 | -13.95636 | -73.82453 | 42084 ft | 447 kts | 295° |
| 2026-05-03 22:30 | -13.93151 | -73.88338 | 42081 ft | 448 kts | 295° |
| 2026-05-03 22:31 | -13.90668 | -73.94214 | 42089 ft | 447 kts | 295° |
| 2026-05-03 22:31 | -13.88186 | -74.00086 | 42091 ft | 446 kts | 295° |
| 2026-05-03 22:32 | -13.85702 | -74.05953 | 42090 ft | 447 kts | 295° |
| 2026-05-03 22:32 | -13.83218 | -74.11819 | 42091 ft | 448 kts | 295° |
| 2026-05-03 22:33 | -13.80723 | -74.17703 | 42097 ft | 448 kts | 295° |
| 2026-05-03 22:33 | -13.78232 | -74.23579 | 42108 ft | 448 kts | 295° |
| 2026-05-03 22:34 | -13.75739 | -74.29450 | 42111 ft | 448 kts | 295° |
| 2026-05-03 22:34 | -13.73243 | -74.35324 | 42116 ft | 448 kts | 295° |
| 2026-05-03 22:35 | -13.70763 | -74.41160 | 42119 ft | 449 kts | 295° |
| 2026-05-03 22:35 | -13.68262 | -74.47033 | 42126 ft | 448 kts | 295° |
| 2026-05-03 22:36 | -13.65757 | -74.52916 | 42130 ft | 448 kts | 295° |
| 2026-05-03 22:36 | -13.63257 | -74.58782 | 42134 ft | 448 kts | 295° |
| 2026-05-03 22:37 | -13.60754 | -74.64650 | 42134 ft | 448 kts | 295° |
| 2026-05-03 22:37 | -13.58246 | -74.70526 | 42143 ft | 449 kts | 295° |
| 2026-05-03 22:38 | -13.55733 | -74.76409 | 42149 ft | 449 kts | 295° |
| 2026-05-03 22:38 | -13.53231 | -74.82262 | 42147 ft | 449 kts | 295° |
| 2026-05-03 22:39 | -13.50709 | -74.88155 | 42150 ft | 450 kts | 295° |
| 2026-05-03 22:39 | -13.48185 | -74.94051 | 42155 ft | 451 kts | 295° |
| 2026-05-03 22:40 | -13.45664 | -74.99935 | 42155 ft | 451 kts | 295° |
| 2026-05-03 22:40 | -13.43132 | -75.05840 | 42153 ft | 450 kts | 295° |
| 2026-05-03 22:41 | -13.40593 | -75.11753 | 42146 ft | 454 kts | 295° |
| 2026-05-03 22:41 | -13.38039 | -75.17704 | 42141 ft | 456 kts | 295° |
| 2026-05-03 22:42 | -13.35479 | -75.23657 | 42142 ft | 456 kts | 295° |
| 2026-05-03 22:42 | -13.32915 | -75.29621 | 42138 ft | 457 kts | 295° |
| 2026-05-03 22:43 | -13.30353 | -75.35570 | 41779 ft | 451 kts | 295° |
| 2026-05-03 22:43 | -13.29096 | -75.38491 | 41327 ft | 443 kts | 295° |
| 2026-05-03 22:43 | -13.27880 | -75.41316 | 40879 ft | 434 kts | 295° |
| 2026-05-03 22:43 | -13.26664 | -75.44133 | 40434 ft | 429 kts | 295° |
| 2026-05-03 22:44 | -13.25458 | -75.46927 | 39994 ft | 426 kts | 295° |
| 2026-05-03 22:44 | -13.24257 | -75.49713 | 39547 ft | 429 kts | 295° |
| 2026-05-03 22:44 | -13.23042 | -75.52531 | 39102 ft | 434 kts | 295° |
| 2026-05-03 22:44 | -13.21815 | -75.55374 | 38632 ft | 436 kts | 295° |
| 2026-05-03 22:45 | -13.20584 | -75.58223 | 38158 ft | 437 kts | 295° |
| 2026-05-03 22:45 | -13.19769 | -75.60111 | 37860 ft | 438 kts | 295° |
| 2026-05-03 22:45 | -13.18532 | -75.62975 | 37400 ft | 440 kts | 295° |
| 2026-05-03 22:45 | -13.17289 | -75.65853 | 36942 ft | 442 kts | 295° |
| 2026-05-03 22:46 | -13.15615 | -75.69721 | 36325 ft | 444 kts | 295° |
| 2026-05-03 22:46 | -13.14785 | -75.71641 | 36024 ft | 445 kts | 295° |
| 2026-05-03 22:46 | -13.13526 | -75.74550 | 35563 ft | 447 kts | 295° |
| 2026-05-03 22:46 | -13.12262 | -75.77471 | 35091 ft | 449 kts | 295° |
| 2026-05-03 22:47 | -13.10991 | -75.80403 | 34626 ft | 450 kts | 295° |
| 2026-05-03 22:47 | -13.09719 | -75.83341 | 34157 ft | 452 kts | 295° |
| 2026-05-03 22:47 | -13.08439 | -75.86295 | 33651 ft | 454 kts | 295° |
| 2026-05-03 22:47 | -13.07157 | -75.89253 | 33176 ft | 455 kts | 295° |
| 2026-05-03 22:48 | -13.05869 | -75.92222 | 32698 ft | 457 kts | 295° |
| 2026-05-03 22:48 | -13.04576 | -75.95202 | 32226 ft | 459 kts | 295° |
| 2026-05-03 22:48 | -13.03272 | -75.98204 | 31742 ft | 459 kts | 295° |
| 2026-05-03 22:48 | -13.01972 | -76.01201 | 31262 ft | 458 kts | 295° |
| 2026-05-03 22:49 | -13.00695 | -76.04142 | 30797 ft | 456 kts | 295° |
| 2026-05-03 22:49 | -12.99412 | -76.07095 | 30325 ft | 452 kts | 296° |
| 2026-05-03 22:49 | -12.98134 | -76.10036 | 29819 ft | 449 kts | 296° |
| 2026-05-03 22:49 | -12.96866 | -76.12952 | 29341 ft | 446 kts | 296° |
| 2026-05-03 22:50 | -12.95606 | -76.15847 | 28886 ft | 443 kts | 296° |
| 2026-05-03 22:50 | -12.94356 | -76.18723 | 28423 ft | 441 kts | 296° |
| 2026-05-03 22:50 | -12.93108 | -76.21589 | 27967 ft | 438 kts | 296° |
| 2026-05-03 22:50 | -12.91870 | -76.24431 | 27508 ft | 436 kts | 296° |
| 2026-05-03 22:51 | -12.90635 | -76.27264 | 27064 ft | 434 kts | 295° |
| 2026-05-03 22:51 | -12.89409 | -76.30081 | 26617 ft | 432 kts | 295° |
| 2026-05-03 22:51 | -12.88188 | -76.32881 | 26167 ft | 429 kts | 295° |
| 2026-05-03 22:51 | -12.86973 | -76.35669 | 25726 ft | 427 kts | 295° |
| 2026-05-03 22:52 | -12.85761 | -76.38448 | 25284 ft | 425 kts | 295° |
| 2026-05-03 22:52 | -12.84559 | -76.41201 | 24849 ft | 423 kts | 295° |
| 2026-05-03 22:52 | -12.83376 | -76.43913 | 24419 ft | 421 kts | 295° |
| 2026-05-03 22:52 | -12.82183 | -76.46647 | 23982 ft | 419 kts | 295° |
| 2026-05-03 22:53 | -12.80996 | -76.49362 | 23547 ft | 417 kts | 295° |
| 2026-05-03 22:53 | -12.79812 | -76.52070 | 23073 ft | 414 kts | 295° |
| 2026-05-03 22:53 | -12.78642 | -76.54750 | 22640 ft | 410 kts | 295° |
| 2026-05-03 22:53 | -12.77481 | -76.57407 | 22217 ft | 408 kts | 295° |
| 2026-05-03 22:54 | -12.76325 | -76.60050 | 21797 ft | 405 kts | 295° |
| 2026-05-03 22:54 | -12.75046 | -76.62605 | 21381 ft | 402 kts | 300° |
| 2026-05-03 22:54 | -12.73710 | -76.65075 | 20974 ft | 400 kts | 300° |
| 2026-05-03 22:54 | -12.72378 | -76.67572 | 20563 ft | 398 kts | 299° |
| 2026-05-03 22:55 | -12.71070 | -76.70066 | 20153 ft | 396 kts | 299° |
| 2026-05-03 22:55 | -12.69763 | -76.72535 | 19744 ft | 393 kts | 300° |
| 2026-05-03 22:55 | -12.68453 | -76.74993 | 19346 ft | 391 kts | 300° |
| 2026-05-03 22:55 | -12.67156 | -76.77432 | 18938 ft | 389 kts | 300° |
| 2026-05-03 22:56 | -12.63349 | -76.84601 | 17727 ft | 381 kts | 299° |
| 2026-05-03 22:56 | -12.62110 | -76.86935 | 17337 ft | 362 kts | 300° |
| 2026-05-03 22:57 | -12.60932 | -76.89148 | 16977 ft | 346 kts | 300° |
| 2026-05-03 22:57 | -12.59802 | -76.91273 | 16627 ft | 334 kts | 300° |
| 2026-05-03 22:57 | -12.58677 | -76.93278 | 16293 ft | 330 kts | 306° |
| 2026-05-03 22:57 | -12.57114 | -76.95054 | 15946 ft | 328 kts | 319° |
| 2026-05-03 22:58 | -12.55285 | -76.96383 | 15615 ft | 326 kts | 332° |
| 2026-05-03 22:58 | -12.53224 | -76.97413 | 15278 ft | 325 kts | 335° |
| 2026-05-03 22:58 | -12.51223 | -76.98409 | 14949 ft | 324 kts | 335° |
| 2026-05-03 22:58 | -12.49201 | -76.99421 | 14616 ft | 323 kts | 335° |
| 2026-05-03 22:59 | -12.47185 | -77.00422 | 14283 ft | 322 kts | 335° |
| 2026-05-03 22:59 | -12.45172 | -77.01422 | 13954 ft | 320 kts | 335° |
| 2026-05-03 22:59 | -12.43170 | -77.02417 | 13601 ft | 319 kts | 335° |
| 2026-05-03 22:59 | -12.41178 | -77.03408 | 13266 ft | 316 kts | 335° |
| 2026-05-03 23:00 | -12.39205 | -77.04388 | 12934 ft | 314 kts | 335° |
| 2026-05-03 23:00 | -12.38082 | -77.04947 | 12747 ft | 312 kts | 335° |
| 2026-05-03 23:00 | -12.36087 | -77.05938 | 12420 ft | 310 kts | 335° |
| 2026-05-03 23:00 | -12.34153 | -77.06898 | 12101 ft | 307 kts | 335° |
| 2026-05-03 23:01 | -12.32240 | -77.07848 | 11779 ft | 305 kts | 335° |
| 2026-05-03 23:01 | -12.30341 | -77.08792 | 11465 ft | 302 kts | 335° |
| 2026-05-03 23:01 | -12.28488 | -77.09713 | 11160 ft | 299 kts | 335° |
| 2026-05-03 23:01 | -12.26626 | -77.10636 | 10849 ft | 293 kts | 334° |
| 2026-05-03 23:02 | -12.24803 | -77.11542 | 10576 ft | 289 kts | 334° |
| 2026-05-03 23:02 | -12.22999 | -77.12437 | 10298 ft | 287 kts | 334° |
| 2026-05-03 23:02 | -12.21212 | -77.13323 | 10009 ft | 285 kts | 334° |
| 2026-05-03 23:02 | -12.19433 | -77.14206 | 9713 ft | 283 kts | 334° |
| 2026-05-03 23:03 | -12.17665 | -77.15084 | 9407 ft | 281 kts | 334° |
| 2026-05-03 23:03 | -12.15907 | -77.15956 | 9113 ft | 281 kts | 334° |
| 2026-05-03 23:03 | -12.14161 | -77.16822 | 8817 ft | 279 kts | 334° |
| 2026-05-03 23:03 | -12.12428 | -77.17681 | 8534 ft | 271 kts | 334° |
| 2026-05-03 23:04 | -12.10760 | -77.18508 | 8257 ft | 262 kts | 334° |
| 2026-05-03 23:04 | -12.09134 | -77.19314 | 7987 ft | 257 kts | 334° |
| 2026-05-03 23:04 | -12.07570 | -77.20091 | 7730 ft | 250 kts | 334° |
| 2026-05-03 23:04 | -12.06027 | -77.20854 | 7473 ft | 243 kts | 334° |
| 2026-05-03 23:05 | -12.04520 | -77.21604 | 7226 ft | 238 kts | 334° |
| 2026-05-03 23:05 | -12.03043 | -77.22335 | 6980 ft | 234 kts | 334° |
| 2026-05-03 23:05 | -12.01593 | -77.23055 | 6745 ft | 230 kts | 333° |
| 2026-05-03 23:05 | -12.00185 | -77.23807 | 6508 ft | 227 kts | 332° |
| 2026-05-03 23:06 | -11.98785 | -77.24527 | 6271 ft | 224 kts | 333° |
| 2026-05-03 23:06 | -11.97402 | -77.25241 | 6030 ft | 221 kts | 333° |
| 2026-05-03 23:06 | -11.96036 | -77.25951 | 5798 ft | 219 kts | 333° |
| 2026-05-03 23:06 | -11.94711 | -77.26640 | 5577 ft | 217 kts | 333° |
| 2026-05-03 23:07 | -11.93352 | -77.27352 | 5351 ft | 215 kts | 332° |
| 2026-05-03 23:07 | -11.92020 | -77.28030 | 5130 ft | 213 kts | 335° |
| 2026-05-03 23:07 | -11.90713 | -77.28658 | 4916 ft | 207 kts | 334° |
| 2026-05-03 23:07 | -11.89444 | -77.29296 | 4706 ft | 200 kts | 333° |
| 2026-05-03 23:08 | -11.88214 | -77.29904 | 4510 ft | 194 kts | 334° |
| 2026-05-03 23:08 | -11.87013 | -77.30488 | 4324 ft | 188 kts | 337° |
| 2026-05-03 23:08 | -11.85740 | -77.30586 | 4051 ft | 188 kts | 20° |
| 2026-05-03 23:08 | -11.84766 | -77.29724 | 3814 ft | 188 kts | 54° |
| 2026-05-03 23:09 | -11.84024 | -77.28636 | 3624 ft | 185 kts | 53° |
| 2026-05-03 23:09 | -11.83250 | -77.27602 | 3426 ft | 182 kts | 52° |
| 2026-05-03 23:09 | -11.82486 | -77.26574 | 3228 ft | 181 kts | 53° |
| 2026-05-03 23:09 | -11.81748 | -77.25540 | 3026 ft | 180 kts | 60° |
| 2026-05-03 23:10 | -11.81441 | -77.24319 | 2799 ft | 179 kts | 88° |
| 2026-05-03 23:10 | -11.81619 | -77.23101 | 2593 ft | 169 kts | 111° |
| 2026-05-03 23:10 | -11.82224 | -77.22099 | 2497 ft | 166 kts | 131° |
| 2026-05-03 23:10 | -11.83138 | -77.21382 | 2401 ft | 166 kts | 147° |
| 2026-05-03 23:11 | -11.84090 | -77.20714 | 2337 ft | 166 kts | 143° |
| 2026-05-03 23:11 | -11.85040 | -77.20020 | 2150 ft | 169 kts | 145° |
| 2026-05-03 23:11 | -11.86016 | -77.19377 | 2005 ft | 163 kts | 152° |
| 2026-05-03 23:11 | -11.87048 | -77.18901 | 2005 ft | 164 kts | 155° |
| 2026-05-03 23:12 | -11.88076 | -77.18390 | 2019 ft | 165 kts | 153° |
| 2026-05-03 23:12 | -11.89110 | -77.17879 | 2005 ft | 165 kts | 154° |
| 2026-05-03 23:12 | -11.90126 | -77.17377 | 2008 ft | 161 kts | 154° |
| 2026-05-03 23:12 | -11.91086 | -77.16905 | 1989 ft | 146 kts | 154° |
| 2026-05-03 23:13 | -11.91985 | -77.16462 | 1919 ft | 144 kts | 154° |
| 2026-05-03 23:13 | -11.92886 | -77.16021 | 1744 ft | 142 kts | 154° |
| 2026-05-03 23:13 | -11.93733 | -77.15592 | 1578 ft | 126 kts | 154° |
| 2026-05-03 23:13 | -11.94530 | -77.15197 | 1408 ft | 131 kts | 155° |
| 2026-05-03 23:14 | -11.95356 | -77.14801 | 1237 ft | 131 kts | 156° |
| 2026-05-03 23:14 | -11.96187 | -77.14396 | 1064 ft | 133 kts | 156° |
| 2026-05-03 23:14 | -11.97019 | -77.13990 | 884 ft | 132 kts | 156° |
| 2026-05-03 23:14 | -11.97848 | -77.13590 | 708 ft | 131 kts | 155° |
| 2026-05-03 23:15 | -11.98641 | -77.13175 | 515 ft | 126 kts | 155° |
| 2026-05-03 23:15 | -11.99423 | -77.12791 | 366 ft | 126 kts | 156° |
| 2026-05-03 23:15 | -12.00221 | -77.12408 | 195 ft | 125 kts | 156° |
| 2026-05-03 23:15 | -12.00970 | -77.12035 | 74 ft | 111 kts | 156° |
| 2026-05-03 23:16 | -12.01469 | -77.11789 | 56 ft | 84 kts | 156° |
| 2026-05-03 23:16 | -12.01847 | -77.11601 | 60 ft | 41 kts | 154° |
| 2026-05-03 23:16 | -12.02081 | -77.11479 | 70 ft | 34 kts | 145° |
| 2026-05-03 23:16 | -12.02214 | -77.11363 | 75 ft | 22 kts | 133° |
| 2026-05-03 23:17 | -12.02274 | -77.11294 | 81 ft | 13 kts | 130° |
| 2026-05-03 23:17 | -12.02333 | -77.11220 | 83 ft | 14 kts | 123° |
| 2026-05-03 23:17 | -12.02384 | -77.11134 | 84 ft | 11 kts | 97° |
| 2026-05-03 23:17 | -12.02337 | -77.11106 | 85 ft | 12 kts | 8° |
| 2026-05-03 23:18 | -12.02230 | -77.11107 | 86 ft | 17 kts | 356° |
| 2026-05-03 23:18 | -12.02119 | -77.11129 | 85 ft | 12 kts | 335° |
| 2026-05-03 23:18 | -12.02110 | -77.11163 | 84 ft | 4 kts | 244° |
| 2026-05-03 23:18 | -12.02124 | -77.11182 | 88 ft | 5 kts | 239° |
| 2026-05-03 23:19 | -12.02127 | -77.11187 | 84 ft | 0 kts | 246° |